sensor_id;sensor_type;location;lat;lon;timestamp;pressure;altitude;pressure_sealevel;temperature;humidity
75166;BME280;63747;48.042;10.088;2024-01-30T00:01:03;96550.59;;;-1.32;66.45
75166;BME280;63747;48.042;10.088;2024-01-30T00:04:03;96545.31;;;-1.31;66.62
75166;BME280;63747;48.042;10.088;2024-01-30T00:07:04;96545.41;;;-1.32;66.55
75166;BME280;63747;48.042;10.088;2024-01-30T00:10:05;96538.56;;;-1.35;66.42
75166;BME280;63747;48.042;10.088;2024-01-30T00:13:06;96531.56;;;-1.33;66.38
75166;BME280;63747;48.042;10.088;2024-01-30T00:16:07;96542.22;;;-1.39;66.29
75166;BME280;63747;48.042;10.088;2024-01-30T00:19:09;96543.47;;;-1.48;66.54
75166;BME280;63747;48.042;10.088;2024-01-30T00:22:09;96550.22;;;-1.44;66.81
75166;BME280;63747;48.042;10.088;2024-01-30T00:25:10;96553.75;;;-1.45;66.71
75166;BME280;63747;48.042;10.088;2024-01-30T00:28:11;96553.75;;;-1.45;66.53
75166;BME280;63747;48.042;10.088;2024-01-30T00:31:11;96554.66;;;-1.46;66.80
75166;BME280;63747;48.042;10.088;2024-01-30T00:34:12;96546.84;;;-1.46;66.81
75166;BME280;63747;48.042;10.088;2024-01-30T00:37:13;96546.84;;;-1.46;66.73
75166;BME280;63747;48.042;10.088;2024-01-30T00:40:14;96549.38;;;-1.44;66.54
75166;BME280;63747;48.042;10.088;2024-01-30T00:43:15;96549.38;;;-1.44;66.66
75166;BME280;63747;48.042;10.088;2024-01-30T00:46:16;96545.09;;;-1.45;66.58
75166;BME280;63747;48.042;10.088;2024-01-30T00:49:17;96549.63;;;-1.50;66.68
75166;BME280;63747;48.042;10.088;2024-01-30T00:52:18;96551.66;;;-1.57;66.58
75166;BME280;63747;48.042;10.088;2024-01-30T00:55:18;96552.84;;;-1.64;66.83
75166;BME280;63747;48.042;10.088;2024-01-30T00:58:19;96556.09;;;-1.59;66.91
75166;BME280;63747;48.042;10.088;2024-01-30T01:01:20;96562.22;;;-1.60;66.63
75166;BME280;63747;48.042;10.088;2024-01-30T01:04:20;96558.94;;;-1.65;66.87
75166;BME280;63747;48.042;10.088;2024-01-30T01:07:21;96560.63;;;-1.64;66.74
75166;BME280;63747;48.042;10.088;2024-01-30T01:10:22;96558.94;;;-1.65;66.77
75166;BME280;63747;48.042;10.088;2024-01-30T01:13:22;96559.22;;;-1.71;66.58
75166;BME280;63747;48.042;10.088;2024-01-30T01:16:23;96563.75;;;-1.76;67.09
75166;BME280;63747;48.042;10.088;2024-01-30T01:19:24;96560.66;;;-1.84;67.00
75166;BME280;63747;48.042;10.088;2024-01-30T01:22:24;96567.47;;;-1.82;66.86
75166;BME280;63747;48.042;10.088;2024-01-30T01:25:25;96561.44;;;-1.82;67.32
75166;BME280;63747;48.042;10.088;2024-01-30T01:28:26;96567.47;;;-1.82;67.22
75166;BME280;63747;48.042;10.088;2024-01-30T01:31:27;96563.06;;;-1.80;67.06
75166;BME280;63747;48.042;10.088;2024-01-30T01:34:29;96558.56;;;-1.76;67.14
75166;BME280;63747;48.042;10.088;2024-01-30T01:37:31;96558.53;;;-1.75;67.14
75166;BME280;63747;48.042;10.088;2024-01-30T01:40:31;96558.44;;;-1.73;67.06
75166;BME280;63747;48.042;10.088;2024-01-30T01:43:32;96558.44;;;-1.73;67.08
75166;BME280;63747;48.042;10.088;2024-01-30T01:46:33;96555.00;;;-1.74;67.06
75166;BME280;63747;48.042;10.088;2024-01-30T01:49:34;96560.19;;;-1.74;67.09
75166;BME280;63747;48.042;10.088;2024-01-30T01:52:36;96560.19;;;-1.74;67.21
75166;BME280;63747;48.042;10.088;2024-01-30T01:55:37;96560.13;;;-1.72;67.24
75166;BME280;63747;48.042;10.088;2024-01-30T01:58:38;96559.22;;;-1.71;67.32
75166;BME280;63747;48.042;10.088;2024-01-30T02:01:39;96552.31;;;-1.72;67.19
75166;BME280;63747;48.042;10.088;2024-01-30T02:04:43;96559.03;;;-1.66;67.35
75166;BME280;63747;48.042;10.088;2024-01-30T02:07:44;96558.19;;;-1.67;67.41
75166;BME280;63747;48.042;10.088;2024-01-30T02:10:45;96552.91;;;-1.65;67.36
75166;BME280;63747;48.042;10.088;2024-01-30T02:13:46;96562.28;;;-1.61;67.29
75166;BME280;63747;48.042;10.088;2024-01-30T02:16:47;96558.78;;;-1.60;67.22
75166;BME280;63747;48.042;10.088;2024-01-30T02:19:47;96564.81;;;-1.60;67.13
75166;BME280;63747;48.042;10.088;2024-01-30T02:22:48;96556.88;;;-1.57;67.15
75166;BME280;63747;48.042;10.088;2024-01-30T02:25:49;96568.19;;;-1.58;67.13
75166;BME280;63747;48.042;10.088;2024-01-30T02:28:53;96554.25;;;-1.57;67.13
75166;BME280;63747;48.042;10.088;2024-01-30T02:31:53;96555.00;;;-1.53;67.19
75166;BME280;63747;48.042;10.088;2024-01-30T02:34:54;96556.69;;;-1.52;67.13
75166;BME280;63747;48.042;10.088;2024-01-30T02:37:55;96559.34;;;-1.54;67.22
75166;BME280;63747;48.042;10.088;2024-01-30T02:40:55;96544.94;;;-1.61;67.40
75166;BME280;63747;48.042;10.088;2024-01-30T02:43:59;96550.97;;;-1.60;67.27
75166;BME280;63747;48.042;10.088;2024-01-30T02:47:00;96551.16;;;-1.65;67.23
75166;BME280;63747;48.042;10.088;2024-01-30T02:50:00;96543.50;;;-1.68;67.33
75166;BME280;63747;48.042;10.088;2024-01-30T02:53:01;96549.53;;;-1.67;67.35
75166;BME280;63747;48.042;10.088;2024-01-30T02:56:02;96546.16;;;-1.70;67.20
75166;BME280;63747;48.042;10.088;2024-01-30T02:59:03;96529.78;;;-1.72;67.14
75166;BME280;63747;48.042;10.088;2024-01-30T03:02:04;96538.59;;;-1.76;67.20
75166;BME280;63747;48.042;10.088;2024-01-30T03:05:05;96538.75;;;-1.79;67.30
75166;BME280;63747;48.042;10.088;2024-01-30T03:08:07;96547.47;;;-1.80;67.37
75166;BME280;63747;48.042;10.088;2024-01-30T03:11:08;96544.94;;;-1.81;67.43
75166;BME280;63747;48.042;10.088;2024-01-30T03:14:08;96539.59;;;-1.78;67.45
75166;BME280;63747;48.042;10.088;2024-01-30T03:17:11;96544.88;;;-1.80;67.44
75166;BME280;63747;48.042;10.088;2024-01-30T03:20:11;96539.59;;;-1.78;67.39
75166;BME280;63747;48.042;10.088;2024-01-30T03:23:12;96541.34;;;-1.79;67.62
75166;BME280;63747;48.042;10.088;2024-01-30T03:26:13;96536.06;;;-1.77;67.34
75166;BME280;63747;48.042;10.088;2024-01-30T03:29:15;96534.41;;;-1.78;67.55
75166;BME280;63747;48.042;10.088;2024-01-30T03:32:16;96524.97;;;-1.81;67.44
75166;BME280;63747;48.042;10.088;2024-01-30T03:35:18;96530.19;;;-1.81;67.34
75166;BME280;63747;48.042;10.088;2024-01-30T03:38:19;96522.25;;;-1.78;67.35
75166;BME280;63747;48.042;10.088;2024-01-30T03:41:19;96524.91;;;-1.79;67.39
75166;BME280;63747;48.042;10.088;2024-01-30T03:44:20;96513.03;;;-1.85;67.47
75166;BME280;63747;48.042;10.088;2024-01-30T03:47:21;96524.47;;;-1.89;67.73
75166;BME280;63747;48.042;10.088;2024-01-30T03:50:22;96525.44;;;-1.91;67.57
75166;BME280;63747;48.042;10.088;2024-01-30T03:53:23;96522.06;;;-1.93;67.61
75166;BME280;63747;48.042;10.088;2024-01-30T03:56:24;96521.22;;;-1.94;67.68
75166;BME280;63747;48.042;10.088;2024-01-30T03:59:25;96524.59;;;-1.92;67.35
75166;BME280;63747;48.042;10.088;2024-01-30T04:02:26;96517.81;;;-1.96;67.29
75166;BME280;63747;48.042;10.088;2024-01-30T04:05:27;96517.97;;;-1.99;67.62
75166;BME280;63747;48.042;10.088;2024-01-30T04:08:27;96515.38;;;-1.99;67.73
75166;BME280;63747;48.042;10.088;2024-01-30T04:11:28;96517.81;;;-1.96;67.59
75166;BME280;63747;48.042;10.088;2024-01-30T04:14:29;96524.47;;;-1.89;67.81
75166;BME280;63747;48.042;10.088;2024-01-30T04:17:29;96527.78;;;-1.85;67.67
75166;BME280;63747;48.042;10.088;2024-01-30T04:20:30;96513.75;;;-1.81;67.93
75166;BME280;63747;48.042;10.088;2024-01-30T04:23:31;96522.31;;;-1.79;67.88
75166;BME280;63747;48.042;10.088;2024-01-30T04:26:31;96525.59;;;-1.76;67.86
75166;BME280;63747;48.042;10.088;2024-01-30T04:29:32;96522.06;;;-1.73;67.77
75166;BME280;63747;48.042;10.088;2024-01-30T04:32:33;96514.91;;;-1.68;67.71
75166;BME280;63747;48.042;10.088;2024-01-30T04:35:34;96518.28;;;-1.66;67.51
75166;BME280;63747;48.042;10.088;2024-01-30T04:38:34;96512.09;;;-1.63;67.74
75166;BME280;63747;48.042;10.088;2024-01-30T04:41:35;96526.56;;;-1.58;67.76
75166;BME280;63747;48.042;10.088;2024-01-30T04:44:36;96521.31;;;-1.56;67.77
75166;BME280;63747;48.042;10.088;2024-01-30T04:47:36;96518.78;;;-1.58;67.72
75166;BME280;63747;48.042;10.088;2024-01-30T04:50:37;96519.78;;;-1.60;67.70
75166;BME280;63747;48.042;10.088;2024-01-30T04:53:38;96531.09;;;-1.61;67.71
75166;BME280;63747;48.042;10.088;2024-01-30T04:56:39;96526.72;;;-1.61;67.72
75166;BME280;63747;48.042;10.088;2024-01-30T04:59:40;96523.31;;;-1.63;67.88
75166;BME280;63747;48.042;10.088;2024-01-30T05:02:41;96522.47;;;-1.63;67.85
75166;BME280;63747;48.042;10.088;2024-01-30T05:05:42;96525.16;;;-1.65;67.70
75166;BME280;63747;48.042;10.088;2024-01-30T05:08:42;96533.88;;;-1.66;68.00
75166;BME280;63747;48.042;10.088;2024-01-30T05:11:43;96544.28;;;-1.66;68.13
75166;BME280;63747;48.042;10.088;2024-01-30T05:14:44;96537.38;;;-1.67;68.03
75166;BME280;63747;48.042;10.088;2024-01-30T05:17:44;96539.19;;;-1.69;68.09
75166;BME280;63747;48.042;10.088;2024-01-30T05:20:45;96545.13;;;-1.65;67.97
75166;BME280;63747;48.042;10.088;2024-01-30T05:23:46;96549.53;;;-1.67;67.91
75166;BME280;63747;48.042;10.088;2024-01-30T05:26:46;96544.38;;;-1.69;68.05
75166;BME280;63747;48.042;10.088;2024-01-30T05:29:48;96544.53;;;-1.72;67.92
75166;BME280;63747;48.042;10.088;2024-01-30T05:32:49;96543.03;;;-1.78;67.98
75166;BME280;63747;48.042;10.088;2024-01-30T05:35:50;96533.81;;;-1.85;68.05
75166;BME280;63747;48.042;10.088;2024-01-30T05:38:54;96553.66;;;-1.82;68.36
75166;BME280;63747;48.042;10.088;2024-01-30T05:41:55;96550.00;;;-1.78;68.28
75166;BME280;63747;48.042;10.088;2024-01-30T05:44:55;96552.72;;;-1.81;68.30
75166;BME280;63747;48.042;10.088;2024-01-30T05:47:57;96554.50;;;-1.82;68.19
75166;BME280;63747;48.042;10.088;2024-01-30T05:50:58;96561.44;;;-1.82;68.19
75166;BME280;63747;48.042;10.088;2024-01-30T05:54:00;96560.66;;;-1.84;68.17
75166;BME280;63747;48.042;10.088;2024-01-30T05:57:03;96555.59;;;-1.87;68.40
75166;BME280;63747;48.042;10.088;2024-01-30T06:00:05;96565.19;;;-1.89;68.20
75166;BME280;63747;48.042;10.088;2024-01-30T06:03:07;96557.59;;;-1.94;68.35
75166;BME280;63747;48.042;10.088;2024-01-30T06:06:07;96561.16;;;-1.97;68.49
75166;BME280;63747;48.042;10.088;2024-01-30T06:09:08;96561.28;;;-2.00;68.14
75166;BME280;63747;48.042;10.088;2024-01-30T06:12:09;96562.31;;;-2.04;68.45
75166;BME280;63747;48.042;10.088;2024-01-30T06:15:11;96565.13;;;-2.08;68.46
75166;BME280;63747;48.042;10.088;2024-01-30T06:18:12;96560.84;;;-2.09;68.59
75166;BME280;63747;48.042;10.088;2024-01-30T06:21:13;96570.31;;;-2.08;68.53
75166;BME280;63747;48.042;10.088;2024-01-30T06:24:14;96563.38;;;-2.08;68.53
75166;BME280;63747;48.042;10.088;2024-01-30T06:27:15;96555.69;;;-2.11;68.78
75166;BME280;63747;48.042;10.088;2024-01-30T06:30:15;96563.44;;;-2.09;68.74
75166;BME280;63747;48.042;10.088;2024-01-30T06:33:16;96553.03;;;-2.09;68.58
75166;BME280;63747;48.042;10.088;2024-01-30T06:36:17;96550.47;;;-2.11;68.69
75166;BME280;63747;48.042;10.088;2024-01-30T06:39:18;96554.00;;;-2.12;68.74
75166;BME280;63747;48.042;10.088;2024-01-30T06:42:19;96562.78;;;-2.14;68.93
75166;BME280;63747;48.042;10.088;2024-01-30T06:45:20;96562.69;;;-2.13;69.03
75166;BME280;63747;48.042;10.088;2024-01-30T06:48:20;96567.66;;;-2.07;68.78
75166;BME280;63747;48.042;10.088;2024-01-30T06:51:21;96566.66;;;-2.04;68.71
75166;BME280;63747;48.042;10.088;2024-01-30T06:54:22;96560.44;;;-2.00;68.62
75166;BME280;63747;48.042;10.088;2024-01-30T06:57:22;96569.94;;;-1.99;68.74
75166;BME280;63747;48.042;10.088;2024-01-30T07:00:23;96558.63;;;-1.98;68.62
75166;BME280;63747;48.042;10.088;2024-01-30T07:03:24;96569.84;;;-1.98;68.80
75166;BME280;63747;48.042;10.088;2024-01-30T07:06:25;96570.69;;;-1.97;68.84
75166;BME280;63747;48.042;10.088;2024-01-30T07:09:25;96572.28;;;-1.93;68.64
75166;BME280;63747;48.042;10.088;2024-01-30T07:12:27;96569.41;;;-1.87;68.66
75166;BME280;63747;48.042;10.088;2024-01-30T07:15:27;96570.13;;;-1.83;68.55
75166;BME280;63747;48.042;10.088;2024-01-30T07:18:29;96570.94;;;-1.81;68.66
75166;BME280;63747;48.042;10.088;2024-01-30T07:21:29;96577.75;;;-1.79;68.60
75166;BME280;63747;48.042;10.088;2024-01-30T07:24:30;96575.72;;;-1.72;68.54
75166;BME280;63747;48.042;10.088;2024-01-30T07:27:31;96583.19;;;-1.64;68.64
75166;BME280;63747;48.042;10.088;2024-01-30T07:30:31;96576.97;;;-1.60;68.43
75166;BME280;63747;48.042;10.088;2024-01-30T07:33:32;96588.72;;;-1.52;68.42
75166;BME280;63747;48.042;10.088;2024-01-30T07:36:33;96587.72;;;-1.49;68.44
75166;BME280;63747;48.042;10.088;2024-01-30T07:39:34;96586.63;;;-1.44;68.55
75166;BME280;63747;48.042;10.088;2024-01-30T07:42:35;96597.63;;;-1.37;68.46
75166;BME280;63747;48.042;10.088;2024-01-30T07:45:35;96593.84;;;-1.30;68.45
75166;BME280;63747;48.042;10.088;2024-01-30T07:48:37;96594.34;;;-1.22;68.58
75166;BME280;63747;48.042;10.088;2024-01-30T07:51:38;96590.50;;;-1.13;68.52
75166;BME280;63747;48.042;10.088;2024-01-30T07:54:39;96594.28;;;-1.01;68.22
75166;BME280;63747;48.042;10.088;2024-01-30T07:57:40;96599.03;;;-0.91;68.34
75166;BME280;63747;48.042;10.088;2024-01-30T08:00:41;96611.63;;;-0.81;68.03
75166;BME280;63747;48.042;10.088;2024-01-30T08:03:42;96603.47;;;-0.74;68.02
75166;BME280;63747;48.042;10.088;2024-01-30T08:06:43;96596.16;;;-0.66;68.17
75166;BME280;63747;48.042;10.088;2024-01-30T08:09:44;96597.50;;;-0.57;67.93
75166;BME280;63747;48.042;10.088;2024-01-30T08:12:44;96603.91;;;-0.45;67.83
75166;BME280;63747;48.042;10.088;2024-01-30T08:15:45;96598.94;;;-0.33;67.81
75166;BME280;63747;48.042;10.088;2024-01-30T08:18:46;96595.81;;;-0.22;67.58
75166;BME280;63747;48.042;10.088;2024-01-30T08:21:47;96602.06;;;-0.07;67.52
75166;BME280;63747;48.042;10.088;2024-01-30T08:24:47;96599.78;;;0.04;67.17
75166;BME280;63747;48.042;10.088;2024-01-30T08:27:48;96600.94;;;0.16;66.99
75166;BME280;63747;48.042;10.088;2024-01-30T08:30:49;96598.59;;;0.29;67.07
75166;BME280;63747;48.042;10.088;2024-01-30T08:33:49;96604.78;;;0.43;66.91
75166;BME280;63747;48.042;10.088;2024-01-30T08:36:50;96600.63;;;0.57;66.68
75166;BME280;63747;48.042;10.088;2024-01-30T08:39:51;96593.09;;;0.68;66.55
75166;BME280;63747;48.042;10.088;2024-01-30T08:42:52;96589.84;;;0.80;66.46
75166;BME280;63747;48.042;10.088;2024-01-30T08:45:53;96593.09;;;1.01;66.36
75166;BME280;63747;48.042;10.088;2024-01-30T08:48:54;96591.22;;;1.20;66.04
75166;BME280;63747;48.042;10.088;2024-01-30T08:51:55;96584.25;;;1.37;65.67
75166;BME280;63747;48.042;10.088;2024-01-30T08:54:56;96587.69;;;1.53;65.54
75166;BME280;63747;48.042;10.088;2024-01-30T08:57:56;96581.28;;;1.74;65.28
75166;BME280;63747;48.042;10.088;2024-01-30T09:00:58;96587.50;;;1.87;65.19
75166;BME280;63747;48.042;10.088;2024-01-30T09:03:59;96582.94;;;2.07;64.81
75166;BME280;63747;48.042;10.088;2024-01-30T09:06:59;96585.06;;;2.30;64.65
75166;BME280;63747;48.042;10.088;2024-01-30T09:10:00;96572.59;;;2.50;64.24
75166;BME280;63747;48.042;10.088;2024-01-30T09:13:01;96580.78;;;2.74;63.89
75166;BME280;63747;48.042;10.088;2024-01-30T09:16:01;96584.16;;;2.90;63.72
75166;BME280;63747;48.042;10.088;2024-01-30T09:19:03;96589.84;;;3.11;63.55
75166;BME280;63747;48.042;10.088;2024-01-30T09:22:04;96593.78;;;3.32;62.82
75166;BME280;63747;48.042;10.088;2024-01-30T09:25:06;96587.16;;;3.55;62.97
75166;BME280;63747;48.042;10.088;2024-01-30T09:28:07;96581.59;;;3.74;62.43
75166;BME280;63747;48.042;10.088;2024-01-30T09:31:11;96592.44;;;3.82;62.11
75166;BME280;63747;48.042;10.088;2024-01-30T09:34:13;96586.78;;;3.88;62.10
75166;BME280;63747;48.042;10.088;2024-01-30T09:37:13;96582.94;;;3.94;62.05
75166;BME280;63747;48.042;10.088;2024-01-30T09:40:15;96586.75;;;4.02;62.21
75166;BME280;63747;48.042;10.088;2024-01-30T09:43:22;96594.22;;;4.09;61.71
75166;BME280;63747;48.042;10.088;2024-01-30T09:46:26;96590.25;;;4.16;61.58
75166;BME280;63747;48.042;10.088;2024-01-30T09:49:28;96589.00;;;4.21;61.45
75166;BME280;63747;48.042;10.088;2024-01-30T09:52:29;96597.13;;;4.31;61.33
75166;BME280;63747;48.042;10.088;2024-01-30T09:55:30;96598.63;;;4.35;61.54
75166;BME280;63747;48.042;10.088;2024-01-30T09:58:30;96602.41;;;4.44;61.66
75166;BME280;63747;48.042;10.088;2024-01-30T10:01:31;96602.72;;;4.52;61.34
75166;BME280;63747;48.042;10.088;2024-01-30T10:04:32;96615.88;;;4.65;61.20
75166;BME280;63747;48.042;10.088;2024-01-30T10:07:33;96605.16;;;4.68;61.34
75166;BME280;63747;48.042;10.088;2024-01-30T10:10:34;96601.22;;;4.75;61.40
75166;BME280;63747;48.042;10.088;2024-01-30T10:13:35;96591.03;;;4.83;61.10
75166;BME280;63747;48.042;10.088;2024-01-30T10:16:36;96592.81;;;4.95;61.25
75166;BME280;63747;48.042;10.088;2024-01-30T10:19:38;96586.28;;;5.01;60.91
75166;BME280;63747;48.042;10.088;2024-01-30T10:22:40;96591.97;;;5.07;60.61
75166;BME280;63747;48.042;10.088;2024-01-30T10:25:44;96580.81;;;5.16;60.82
75166;BME280;63747;48.042;10.088;2024-01-30T10:28:45;96579.94;;;5.29;60.71
75166;BME280;63747;48.042;10.088;2024-01-30T10:31:45;96577.22;;;5.43;60.27
75166;BME280;63747;48.042;10.088;2024-01-30T10:34:47;96578.03;;;5.56;60.07
75166;BME280;63747;48.042;10.088;2024-01-30T10:37:48;96574.31;;;5.71;60.06
75166;BME280;63747;48.042;10.088;2024-01-30T10:40:52;96572.66;;;5.94;60.12
75166;BME280;63747;48.042;10.088;2024-01-30T10:44:10;96571.94;;;6.16;59.55
75166;BME280;63747;48.042;10.088;2024-01-30T10:47:12;96566.34;;;6.45;59.29
75166;BME280;63747;48.042;10.088;2024-01-30T10:50:16;96562.78;;;6.68;58.49
75166;BME280;63747;48.042;10.088;2024-01-30T10:53:17;96558.91;;;6.85;57.84
75166;BME280;63747;48.042;10.088;2024-01-30T10:56:21;96556.25;;;6.96;57.62
75166;BME280;63747;48.042;10.088;2024-01-30T10:59:23;96554.69;;;7.05;57.29
75166;BME280;63747;48.042;10.088;2024-01-30T11:02:25;96560.00;;;7.16;57.12
75166;BME280;63747;48.042;10.088;2024-01-30T11:05:27;96558.31;;;7.38;56.82
75166;BME280;63747;48.042;10.088;2024-01-30T11:08:28;96552.56;;;7.55;56.34
75166;BME280;63747;48.042;10.088;2024-01-30T11:11:29;96552.41;;;7.68;56.13
75166;BME280;63747;48.042;10.088;2024-01-30T11:14:30;96553.50;;;7.65;55.79
75166;BME280;63747;48.042;10.088;2024-01-30T11:20:56;96540.19;;;7.67;55.71
75166;BME280;63747;48.042;10.088;2024-01-30T11:23:58;96555.66;;;7.82;55.55
75166;BME280;63747;48.042;10.088;2024-01-30T11:26:59;96550.56;;;8.02;55.14
75166;BME280;63747;48.042;10.088;2024-01-30T11:30:01;96548.81;;;8.23;54.79
75166;BME280;63747;48.042;10.088;2024-01-30T11:33:15;96542.97;;;8.40;54.28
75166;BME280;63747;48.042;10.088;2024-01-30T11:36:16;96544.22;;;8.57;54.16
75166;BME280;63747;48.042;10.088;2024-01-30T11:39:17;96526.88;;;8.64;53.59
75166;BME280;63747;48.042;10.088;2024-01-30T11:42:24;96527.72;;;8.65;53.37
75166;BME280;63747;48.042;10.088;2024-01-30T11:45:28;96528.13;;;8.81;53.53
75166;BME280;63747;48.042;10.088;2024-01-30T11:48:29;96526.84;;;9.06;52.96
75166;BME280;63747;48.042;10.088;2024-01-30T11:51:30;96521.66;;;9.25;53.24
75166;BME280;63747;48.042;10.088;2024-01-30T11:54:31;96519.94;;;9.45;53.96
75166;BME280;63747;48.042;10.088;2024-01-30T11:57:32;96518.16;;;9.56;52.93
75166;BME280;63747;48.042;10.088;2024-01-30T12:00:34;96519.84;;;9.57;52.36
75166;BME280;63747;48.042;10.088;2024-01-30T12:03:35;96510.09;;;9.57;51.80
75166;BME280;63747;48.042;10.088;2024-01-30T12:06:36;96510.94;;;9.67;51.75
75166;BME280;63747;48.042;10.088;2024-01-30T12:09:37;96505.97;;;9.84;51.74
75166;BME280;63747;48.042;10.088;2024-01-30T12:12:38;96501.81;;;9.91;51.39
75166;BME280;63747;48.042;10.088;2024-01-30T12:15:38;96503.88;;;9.87;51.14
75166;BME280;63747;48.042;10.088;2024-01-30T12:18:39;96510.31;;;9.85;50.80
75166;BME280;63747;48.042;10.088;2024-01-30T12:21:40;96500.41;;;9.87;50.59
75166;BME280;63747;48.042;10.088;2024-01-30T12:24:41;96503.59;;;9.71;50.00
75166;BME280;63747;48.042;10.088;2024-01-30T12:27:44;96500.09;;;9.80;50.32
75166;BME280;63747;48.042;10.088;2024-01-30T12:30:44;96498.31;;;9.90;49.95
75166;BME280;63747;48.042;10.088;2024-01-30T12:33:49;96497.78;;;9.96;50.05
75166;BME280;63747;48.042;10.088;2024-01-30T12:36:49;96493.03;;;9.90;49.65
75166;BME280;63747;48.042;10.088;2024-01-30T12:39:53;96496.47;;;9.81;49.15
75166;BME280;63747;48.042;10.088;2024-01-30T12:42:54;96496.47;;;9.81;50.16
75166;BME280;63747;48.042;10.088;2024-01-30T12:45:55;96491.63;;;9.86;50.05
75166;BME280;63747;48.042;10.088;2024-01-30T12:48:56;96497.47;;;9.80;49.20
75166;BME280;63747;48.042;10.088;2024-01-30T12:51:56;96491.06;;;9.92;49.89
75166;BME280;63747;48.042;10.088;2024-01-30T12:54:58;96486.47;;;9.94;49.43
75166;BME280;63747;48.042;10.088;2024-01-30T12:57:59;96488.84;;;9.97;49.38
75166;BME280;63747;48.042;10.088;2024-01-30T13:01:00;96493.47;;;10.05;49.59
75166;BME280;63747;48.042;10.088;2024-01-30T13:04:01;96488.16;;;10.05;49.33
75166;BME280;63747;48.042;10.088;2024-01-30T13:07:02;96487.44;;;10.03;49.51
75166;BME280;63747;48.042;10.088;2024-01-30T13:10:03;96478.94;;;10.09;49.58
75166;BME280;63747;48.042;10.088;2024-01-30T13:13:04;96481.72;;;10.07;49.04
75166;BME280;63747;48.042;10.088;2024-01-30T13:16:05;96482.16;;;10.13;49.52
75166;BME280;63747;48.042;10.088;2024-01-30T13:19:06;96481.88;;;10.25;49.25
75166;BME280;63747;48.042;10.088;2024-01-30T13:22:06;96477.00;;;10.30;49.04
75166;BME280;63747;48.042;10.088;2024-01-30T13:25:07;96488.16;;;10.24;48.98
75166;BME280;63747;48.042;10.088;2024-01-30T13:28:08;96484.09;;;10.30;49.31
75166;BME280;63747;48.042;10.088;2024-01-30T13:31:08;96484.25;;;10.38;49.29
75166;BME280;63747;48.042;10.088;2024-01-30T13:34:09;96486.59;;;10.41;49.10
75166;BME280;63747;48.042;10.088;2024-01-30T13:37:10;96487.44;;;10.42;48.67
75166;BME280;63747;48.042;10.088;2024-01-30T13:40:11;96485.22;;;10.37;48.97
75166;BME280;63747;48.042;10.088;2024-01-30T13:43:12;96489.38;;;10.30;48.67
75166;BME280;63747;48.042;10.088;2024-01-30T13:46:13;96490.66;;;10.26;48.68
75166;BME280;63747;48.042;10.088;2024-01-30T13:49:14;96494.69;;;10.30;49.15
75166;BME280;63747;48.042;10.088;2024-01-30T13:52:15;96487.31;;;10.33;49.20
75166;BME280;63747;48.042;10.088;2024-01-30T13:55:15;96491.78;;;10.33;48.75
75166;BME280;63747;48.042;10.088;2024-01-30T13:58:16;96495.13;;;10.35;48.90
75166;BME280;63747;48.042;10.088;2024-01-30T14:01:17;96493.16;;;10.27;48.97
75166;BME280;63747;48.042;10.088;2024-01-30T14:04:18;96489.81;;;10.35;49.13
75166;BME280;63747;48.042;10.088;2024-01-30T14:07:18;96495.13;;;10.45;48.87
75166;BME280;63747;48.042;10.088;2024-01-30T14:10:19;96492.44;;;10.54;48.91
75166;BME280;63747;48.042;10.088;2024-01-30T14:13:20;96500.16;;;10.57;48.66
75166;BME280;63747;48.042;10.088;2024-01-30T14:16:22;96497.91;;;10.53;48.04
75166;BME280;63747;48.042;10.088;2024-01-30T14:19:24;96493.03;;;10.58;48.16
75166;BME280;63747;48.042;10.088;2024-01-30T14:22:25;96502.53;;;10.51;48.17
75166;BME280;63747;48.042;10.088;2024-01-30T14:25:25;96494.84;;;10.38;48.26
75166;BME280;63747;48.042;10.088;2024-01-30T14:28:26;96504.31;;;10.41;48.03
75166;BME280;63747;48.042;10.088;2024-01-30T14:31:27;96495.53;;;10.40;48.16
75166;BME280;63747;48.042;10.088;2024-01-30T14:34:27;96497.91;;;10.53;48.43
75166;BME280;63747;48.042;10.088;2024-01-30T14:37:28;96498.75;;;10.53;47.77
75166;BME280;63747;48.042;10.088;2024-01-30T14:40:30;96497.63;;;10.46;48.26
75166;BME280;63747;48.042;10.088;2024-01-30T14:43:31;96505.72;;;10.45;48.26
75166;BME280;63747;48.042;10.088;2024-01-30T14:46:32;96502.22;;;10.34;47.88
75166;BME280;63747;48.042;10.088;2024-01-30T14:49:33;96510.19;;;10.15;48.40
75166;BME280;63747;48.042;10.088;2024-01-30T14:52:34;96507.81;;;10.12;49.11
75166;BME280;63747;48.042;10.088;2024-01-30T14:55:35;96503.50;;;10.11;48.60
75166;BME280;63747;48.042;10.088;2024-01-30T14:58:36;96512.44;;;10.10;48.56
75166;BME280;63747;48.042;10.088;2024-01-30T15:01:37;96509.31;;;9.95;49.53
75166;BME280;63747;48.042;10.088;2024-01-30T15:04:38;96514.31;;;9.79;49.22
75166;BME280;63747;48.042;10.088;2024-01-30T15:07:39;96519.63;;;9.69;49.47
75166;BME280;63747;48.042;10.088;2024-01-30T15:10:39;96516.53;;;9.64;49.25
75166;BME280;63747;48.042;10.088;2024-01-30T15:13:40;96521.47;;;9.48;49.12
75166;BME280;63747;48.042;10.088;2024-01-30T15:16:41;96522.88;;;9.42;49.03
75166;BME280;63747;48.042;10.088;2024-01-30T15:19:42;96522.97;;;9.31;49.37
75166;BME280;63747;48.042;10.088;2024-01-30T15:22:43;96514.69;;;9.24;49.34
75166;BME280;63747;48.042;10.088;2024-01-30T15:25:45;96524.44;;;9.24;49.33
75166;BME280;63747;48.042;10.088;2024-01-30T15:28:45;96525.09;;;9.16;49.63
75166;BME280;63747;48.042;10.088;2024-01-30T15:31:46;96526.31;;;9.12;49.74
75166;BME280;63747;48.042;10.088;2024-01-30T15:34:47;96528.19;;;9.01;49.90
75166;BME280;63747;48.042;10.088;2024-01-30T15:37:48;96524.41;;;8.93;50.20
75166;BME280;63747;48.042;10.088;2024-01-30T15:40:49;96527.38;;;8.79;50.26
75166;BME280;63747;48.042;10.088;2024-01-30T15:43:49;96536.94;;;8.70;50.36
75166;BME280;63747;48.042;10.088;2024-01-30T15:46:51;96531.72;;;8.59;50.38
75166;BME280;63747;48.042;10.088;2024-01-30T15:49:52;96536.94;;;8.50;50.58
75166;BME280;63747;48.042;10.088;2024-01-30T15:52:52;96527.25;;;8.39;50.52